sensor_id;sensor_type;location;lat;lon;timestamp;pressure;altitude;pressure_sealevel;temperature;humidity
19831;BME280;10076;52.008;4.708;2023-04-15T00:00:33;100815.34;;;12.40;100.00
19831;BME280;10076;52.008;4.708;2023-04-15T00:02:59;100815.63;;;12.27;100.00
19831;BME280;10076;52.008;4.708;2023-04-15T00:05:26;100818.59;;;12.22;100.00
19831;BME280;10076;52.008;4.708;2023-04-15T00:07:51;100830.41;;;12.18;100.00
19831;BME280;10076;52.008;4.708;2023-04-15T00:10:17;100829.19;;;12.33;100.00
19831;BME280;10076;52.008;4.708;2023-04-15T00:12:43;100822.94;;;12.34;100.00
19831;BME280;10076;52.008;4.708;2023-04-15T00:15:08;100825.94;;;12.19;100.00
19831;BME280;10076;52.008;4.708;2023-04-15T00:17:34;100823.16;;;12.20;100.00
19831;BME280;10076;52.008;4.708;2023-04-15T00:20:00;100826.91;;;12.18;100.00
19831;BME280;10076;52.008;4.708;2023-04-15T00:22:26;100828.22;;;12.12;100.00
19831;BME280;10076;52.008;4.708;2023-04-15T00:24:54;100828.72;;;12.17;100.00
19831;BME280;10076;52.008;4.708;2023-04-15T00:27:19;100829.16;;;11.89;100.00
19831;BME280;10076;52.008;4.708;2023-04-15T00:29:45;100826.72;;;11.86;100.00
19831;BME280;10076;52.008;4.708;2023-04-15T00:32:10;100826.94;;;11.73;100.00
19831;BME280;10076;52.008;4.708;2023-04-15T00:34:36;100830.53;;;11.72;100.00
19831;BME280;10076;52.008;4.708;2023-04-15T00:37:02;100826.59;;;11.88;100.00
19831;BME280;10076;52.008;4.708;2023-04-15T00:39:27;100823.69;;;11.80;100.00
19831;BME280;10076;52.008;4.708;2023-04-15T00:41:52;100834.00;;;11.72;100.00
19831;BME280;10076;52.008;4.708;2023-04-15T00:44:18;100833.50;;;11.67;100.00
19831;BME280;10076;52.008;4.708;2023-04-15T00:46:44;100826.16;;;11.60;100.00
19831;BME280;10076;52.008;4.708;2023-04-15T00:49:10;100831.00;;;11.66;100.00
19831;BME280;10076;52.008;4.708;2023-04-15T00:51:37;100837.91;;;11.56;100.00
19831;BME280;10076;52.008;4.708;2023-04-15T00:54:03;100832.13;;;11.51;100.00
19831;BME280;10076;52.008;4.708;2023-04-15T00:56:29;100834.84;;;11.49;100.00
19831;BME280;10076;52.008;4.708;2023-04-15T00:58:55;100832.16;;;11.62;100.00
19831;BME280;10076;52.008;4.708;2023-04-15T01:01:21;100826.41;;;11.44;100.00
19831;BME280;10076;52.008;4.708;2023-04-15T01:03:49;100833.28;;;11.47;100.00
19831;BME280;10076;52.008;4.708;2023-04-15T01:06:15;100831.91;;;11.41;100.00
19831;BME280;10076;52.008;4.708;2023-04-15T01:08:41;100832.38;;;11.35;100.00
19831;BME280;10076;52.008;4.708;2023-04-15T01:11:08;100827.84;;;11.61;100.00
19831;BME280;10076;52.008;4.708;2023-04-15T01:13:34;100825.56;;;11.67;100.00
19831;BME280;10076;52.008;4.708;2023-04-15T01:16:00;100825.22;;;11.48;100.00
19831;BME280;10076;52.008;4.708;2023-04-15T01:18:27;100817.13;;;11.51;100.00
19831;BME280;10076;52.008;4.708;2023-04-15T01:20:53;100828.31;;;11.55;100.00
19831;BME280;10076;52.008;4.708;2023-04-15T01:23:19;100832.16;;;11.38;100.00
19831;BME280;10076;52.008;4.708;2023-04-15T01:25:46;100835.53;;;11.40;100.00
19831;BME280;10076;52.008;4.708;2023-04-15T01:28:13;100836.63;;;11.38;100.00
19831;BME280;10076;52.008;4.708;2023-04-15T01:30:38;100832.44;;;11.23;100.00
19831;BME280;10076;52.008;4.708;2023-04-15T01:33:04;100832.94;;;11.28;100.00
19831;BME280;10076;52.008;4.708;2023-04-15T01:35:29;100831.16;;;11.28;100.00
19831;BME280;10076;52.008;4.708;2023-04-15T01:38:01;100835.13;;;11.34;100.00
19831;BME280;10076;52.008;4.708;2023-04-15T01:40:27;100836.16;;;11.20;100.00
19831;BME280;10076;52.008;4.708;2023-04-15T01:42:53;100835.75;;;11.14;100.00
19831;BME280;10076;52.008;4.708;2023-04-15T01:45:18;100838.16;;;11.17;100.00
19831;BME280;10076;52.008;4.708;2023-04-15T01:47:43;100835.84;;;11.12;100.00
19831;BME280;10076;52.008;4.708;2023-04-15T01:50:09;100838.41;;;11.14;100.00
19831;BME280;10076;52.008;4.708;2023-04-15T01:52:34;100845.16;;;11.18;100.00
19831;BME280;10076;52.008;4.708;2023-04-15T01:55:00;100829.88;;;10.98;100.00
19831;BME280;10076;52.008;4.708;2023-04-15T01:57:25;100838.47;;;10.89;100.00
19831;BME280;10076;52.008;4.708;2023-04-15T01:59:50;100848.94;;;10.91;100.00
19831;BME280;10076;52.008;4.708;2023-04-15T02:02:15;100842.38;;;10.84;100.00
19831;BME280;10076;52.008;4.708;2023-04-15T02:04:41;100848.47;;;10.73;100.00
19831;BME280;10076;52.008;4.708;2023-04-15T02:07:06;100842.06;;;10.88;100.00
19831;BME280;10076;52.008;4.708;2023-04-15T02:09:32;100845.06;;;10.71;100.00
19831;BME280;10076;52.008;4.708;2023-04-15T02:11:58;100848.78;;;10.69;100.00
19831;BME280;10076;52.008;4.708;2023-04-15T02:14:23;100851.94;;;10.74;100.00
19831;BME280;10076;52.008;4.708;2023-04-15T02:16:48;100846.03;;;10.70;100.00
19831;BME280;10076;52.008;4.708;2023-04-15T02:19:14;100850.78;;;10.65;100.00
19831;BME280;10076;52.008;4.708;2023-04-15T02:21:39;100850.16;;;10.62;100.00
19831;BME280;10076;52.008;4.708;2023-04-15T02:24:05;100848.22;;;10.76;100.00
19831;BME280;10076;52.008;4.708;2023-04-15T02:26:30;100849.09;;;10.64;100.00
19831;BME280;10076;52.008;4.708;2023-04-15T02:28:59;100857.56;;;10.57;100.00
19831;BME280;10076;52.008;4.708;2023-04-15T02:31:24;100853.53;;;10.51;100.00
19831;BME280;10076;52.008;4.708;2023-04-15T02:33:50;100858.81;;;10.51;100.00
19831;BME280;10076;52.008;4.708;2023-04-15T02:36:15;100860.09;;;10.58;100.00
19831;BME280;10076;52.008;4.708;2023-04-15T02:38:41;100865.28;;;10.47;100.00
19831;BME280;10076;52.008;4.708;2023-04-15T02:41:08;100866.44;;;10.43;100.00
19831;BME280;10076;52.008;4.708;2023-04-15T02:43:34;100872.47;;;10.45;100.00
19831;BME280;10076;52.008;4.708;2023-04-15T02:45:59;100872.75;;;10.53;100.00
19831;BME280;10076;52.008;4.708;2023-04-15T02:48:24;100876.56;;;10.37;100.00
19831;BME280;10076;52.008;4.708;2023-04-15T02:50:50;100869.28;;;10.28;100.00
19831;BME280;10076;52.008;4.708;2023-04-15T02:53:15;100875.13;;;10.45;100.00
19831;BME280;10076;52.008;4.708;2023-04-15T02:55:41;100878.03;;;10.29;100.00
19831;BME280;10076;52.008;4.708;2023-04-15T02:58:09;100889.47;;;10.17;100.00
19831;BME280;10076;52.008;4.708;2023-04-15T03:00:35;100880.06;;;10.25;100.00
19831;BME280;10076;52.008;4.708;2023-04-15T03:03:02;100888.53;;;10.30;100.00
19831;BME280;10076;52.008;4.708;2023-04-15T03:05:28;100881.53;;;10.17;100.00
19831;BME280;10076;52.008;4.708;2023-04-15T03:07:53;100883.31;;;10.29;100.00
19831;BME280;10076;52.008;4.708;2023-04-15T03:10:19;100890.72;;;10.24;100.00
19831;BME280;10076;52.008;4.708;2023-04-15T03:12:45;100892.19;;;10.40;100.00
19831;BME280;10076;52.008;4.708;2023-04-15T03:15:10;100888.19;;;10.22;100.00
19831;BME280;10076;52.008;4.708;2023-04-15T03:17:36;100895.56;;;10.17;100.00
19831;BME280;10076;52.008;4.708;2023-04-15T03:20:02;100901.25;;;10.11;100.00
19831;BME280;10076;52.008;4.708;2023-04-15T03:22:29;100890.94;;;10.21;100.00
19831;BME280;10076;52.008;4.708;2023-04-15T03:24:55;100898.31;;;10.28;100.00
19831;BME280;10076;52.008;4.708;2023-04-15T03:27:21;100896.09;;;10.22;100.00
19831;BME280;10076;52.008;4.708;2023-04-15T03:29:46;100899.91;;;10.31;100.00
19831;BME280;10076;52.008;4.708;2023-04-15T03:32:11;100899.03;;;10.18;100.00
19831;BME280;10076;52.008;4.708;2023-04-15T03:34:37;100909.47;;;10.07;100.00
19831;BME280;10076;52.008;4.708;2023-04-15T03:37:02;100908.66;;;10.19;100.00
19831;BME280;10076;52.008;4.708;2023-04-15T03:39:27;100912.56;;;10.13;100.00
19831;BME280;10076;52.008;4.708;2023-04-15T03:41:52;100912.00;;;10.08;100.00
19831;BME280;10076;52.008;4.708;2023-04-15T03:44:18;100913.06;;;10.06;100.00
19831;BME280;10076;52.008;4.708;2023-04-15T03:46:43;100918.66;;;10.01;100.00
19831;BME280;10076;52.008;4.708;2023-04-15T03:49:09;100924.88;;;10.00;100.00
19831;BME280;10076;52.008;4.708;2023-04-15T03:51:34;100922.13;;;10.02;100.00
19831;BME280;10076;52.008;4.708;2023-04-15T03:54:00;100923.41;;;10.09;100.00
19831;BME280;10076;52.008;4.708;2023-04-15T03:56:26;100931.84;;;10.01;100.00
19831;BME280;10076;52.008;4.708;2023-04-15T03:58:51;100929.88;;;9.91;100.00
19831;BME280;10076;52.008;4.708;2023-04-15T04:01:17;100936.25;;;10.01;100.00
19831;BME280;10076;52.008;4.708;2023-04-15T04:03:43;100940.72;;;9.86;100.00
19831;BME280;10076;52.008;4.708;2023-04-15T04:06:08;100936.38;;;9.99;100.00
19831;BME280;10076;52.008;4.708;2023-04-15T04:08:34;100942.94;;;10.06;100.00
19831;BME280;10076;52.008;4.708;2023-04-15T04:10:59;100944.94;;;9.89;100.00
19831;BME280;10076;52.008;4.708;2023-04-15T04:13:25;100945.22;;;9.72;100.00
19831;BME280;10076;52.008;4.708;2023-04-15T04:15:50;100954.31;;;9.80;100.00
19831;BME280;10076;52.008;4.708;2023-04-15T04:18:15;100954.28;;;9.68;100.00
19831;BME280;10076;52.008;4.708;2023-04-15T04:20:41;100956.81;;;9.69;100.00
19831;BME280;10076;52.008;4.708;2023-04-15T04:23:06;100955.88;;;9.70;100.00
19831;BME280;10076;52.008;4.708;2023-04-15T04:25:31;100962.22;;;9.80;100.00
19831;BME280;10076;52.008;4.708;2023-04-15T04:27:57;100967.25;;;9.71;100.00
19831;BME280;10076;52.008;4.708;2023-04-15T04:30:22;100960.78;;;9.62;100.00
19831;BME280;10076;52.008;4.708;2023-04-15T04:32:49;100974.59;;;9.80;100.00
19831;BME280;10076;52.008;4.708;2023-04-15T04:35:14;100975.16;;;9.71;100.00
19831;BME280;10076;52.008;4.708;2023-04-15T04:37:40;100983.47;;;9.65;100.00
19831;BME280;10076;52.008;4.708;2023-04-15T04:40:06;100988.00;;;9.63;100.00
19831;BME280;10076;52.008;4.708;2023-04-15T04:42:32;100985.22;;;9.52;100.00
19831;BME280;10076;52.008;4.708;2023-04-15T04:44:57;100992.75;;;9.44;100.00
19831;BME280;10076;52.008;4.708;2023-04-15T04:47:22;100988.25;;;9.46;100.00
19831;BME280;10076;52.008;4.708;2023-04-15T04:49:48;100997.25;;;9.56;100.00
19831;BME280;10076;52.008;4.708;2023-04-15T04:52:13;101001.31;;;9.48;100.00
19831;BME280;10076;52.008;4.708;2023-04-15T04:54:38;100999.44;;;9.36;100.00
19831;BME280;10076;52.008;4.708;2023-04-15T04:57:04;101007.25;;;9.51;100.00
19831;BME280;10076;52.008;4.708;2023-04-15T04:59:29;101009.97;;;9.50;100.00
19831;BME280;10076;52.008;4.708;2023-04-15T05:01:54;101019.38;;;9.54;100.00
19831;BME280;10076;52.008;4.708;2023-04-15T05:04:20;101015.53;;;9.45;100.00
19831;BME280;10076;52.008;4.708;2023-04-15T05:06:45;101027.94;;;9.43;100.00
19831;BME280;10076;52.008;4.708;2023-04-15T05:09:11;101029.25;;;9.50;100.00
19831;BME280;10076;52.008;4.708;2023-04-15T05:11:36;101030.84;;;9.66;100.00
19831;BME280;10076;52.008;4.708;2023-04-15T05:14:01;101034.75;;;9.47;100.00
19831;BME280;10076;52.008;4.708;2023-04-15T05:16:27;101042.06;;;9.42;100.00
19831;BME280;10076;52.008;4.708;2023-04-15T05:18:52;101047.34;;;9.56;100.00
19831;BME280;10076;52.008;4.708;2023-04-15T05:21:18;101050.63;;;9.46;100.00
19831;BME280;10076;52.008;4.708;2023-04-15T05:23:43;101062.88;;;9.61;100.00
19831;BME280;10076;52.008;4.708;2023-04-15T05:26:09;101061.44;;;9.69;100.00
19831;BME280;10076;52.008;4.708;2023-04-15T05:28:34;101067.81;;;9.79;100.00
19831;BME280;10076;52.008;4.708;2023-04-15T05:30:59;101067.53;;;9.69;100.00
19831;BME280;10076;52.008;4.708;2023-04-15T05:33:25;101078.03;;;9.57;100.00
19831;BME280;10076;52.008;4.708;2023-04-15T05:35:51;101080.44;;;9.74;100.00
19831;BME280;10076;52.008;4.708;2023-04-15T05:38:17;101087.69;;;9.84;100.00
19831;BME280;10076;52.008;4.708;2023-04-15T05:40:42;101094.84;;;9.82;100.00
19831;BME280;10076;52.008;4.708;2023-04-15T05:43:07;101099.84;;;9.87;100.00
19831;BME280;10076;52.008;4.708;2023-04-15T05:45:33;101108.50;;;10.03;100.00
19831;BME280;10076;52.008;4.708;2023-04-15T05:47:58;101118.09;;;9.90;100.00
19831;BME280;10076;52.008;4.708;2023-04-15T05:50:23;101120.41;;;10.08;100.00
19831;BME280;10076;52.008;4.708;2023-04-15T05:52:48;101124.09;;;10.20;100.00
19831;BME280;10076;52.008;4.708;2023-04-15T05:55:14;101129.72;;;10.28;100.00
19831;BME280;10076;52.008;4.708;2023-04-15T05:57:40;101135.00;;;10.28;100.00
19831;BME280;10076;52.008;4.708;2023-04-15T06:00:06;101140.44;;;10.38;100.00
19831;BME280;10076;52.008;4.708;2023-04-15T06:02:31;101151.00;;;10.38;100.00
19831;BME280;10076;52.008;4.708;2023-04-15T06:04:56;101150.59;;;10.44;100.00
19831;BME280;10076;52.008;4.708;2023-04-15T06:07:22;101158.78;;;10.54;100.00
19831;BME280;10076;52.008;4.708;2023-04-15T06:09:48;101167.22;;;10.59;100.00
19831;BME280;10076;52.008;4.708;2023-04-15T06:12:14;101172.69;;;10.56;100.00
19831;BME280;10076;52.008;4.708;2023-04-15T06:14:39;101177.19;;;10.68;100.00
19831;BME280;10076;52.008;4.708;2023-04-15T06:17:05;101183.94;;;10.72;100.00
19831;BME280;10076;52.008;4.708;2023-04-15T06:19:31;101188.88;;;10.90;100.00
19831;BME280;10076;52.008;4.708;2023-04-15T06:21:57;101194.06;;;10.92;100.00
19831;BME280;10076;52.008;4.708;2023-04-15T06:24:22;101206.63;;;10.88;100.00
19831;BME280;10076;52.008;4.708;2023-04-15T06:26:47;101206.16;;;11.08;100.00
19831;BME280;10076;52.008;4.708;2023-04-15T06:29:13;101208.16;;;11.17;100.00
19831;BME280;10076;52.008;4.708;2023-04-15T06:31:38;101214.75;;;11.36;100.00
19831;BME280;10076;52.008;4.708;2023-04-15T06:34:03;101215.63;;;11.37;100.00
19831;BME280;10076;52.008;4.708;2023-04-15T06:36:29;101221.41;;;11.29;100.00
19831;BME280;10076;52.008;4.708;2023-04-15T06:38:54;101223.63;;;11.35;100.00
19831;BME280;10076;52.008;4.708;2023-04-15T06:41:21;101230.66;;;11.49;100.00
19831;BME280;10076;52.008;4.708;2023-04-15T06:43:46;101231.41;;;11.51;100.00
19831;BME280;10076;52.008;4.708;2023-04-15T06:46:11;101238.31;;;11.66;100.00
19831;BME280;10076;52.008;4.708;2023-04-15T06:48:37;101244.53;;;11.77;100.00
19831;BME280;10076;52.008;4.708;2023-04-15T06:51:02;101242.53;;;11.68;100.00
19831;BME280;10076;52.008;4.708;2023-04-15T06:53:28;101252.28;;;12.17;100.00
19831;BME280;10076;52.008;4.708;2023-04-15T06:55:53;101254.28;;;12.14;100.00
19831;BME280;10076;52.008;4.708;2023-04-15T06:58:19;101248.59;;;12.07;100.00
19831;BME280;10076;52.008;4.708;2023-04-15T07:00:44;101253.09;;;12.18;100.00
19831;BME280;10076;52.008;4.708;2023-04-15T07:03:11;101254.25;;;12.26;100.00
19831;BME280;10076;52.008;4.708;2023-04-15T07:05:37;101249.38;;;12.33;100.00
19831;BME280;10076;52.008;4.708;2023-04-15T07:08:02;101262.00;;;12.29;100.00
19831;BME280;10076;52.008;4.708;2023-04-15T07:10:28;101256.97;;;12.37;100.00
19831;BME280;10076;52.008;4.708;2023-04-15T07:12:53;101268.84;;;12.44;100.00
19831;BME280;10076;52.008;4.708;2023-04-15T07:15:19;101265.69;;;12.62;100.00
19831;BME280;10076;52.008;4.708;2023-04-15T07:17:44;101270.09;;;12.51;100.00
19831;BME280;10076;52.008;4.708;2023-04-15T07:20:10;101275.03;;;12.68;100.00
19831;BME280;10076;52.008;4.708;2023-04-15T07:22:35;101274.97;;;12.93;100.00
19831;BME280;10076;52.008;4.708;2023-04-15T07:25:00;101279.53;;;12.91;100.00
19831;BME280;10076;52.008;4.708;2023-04-15T07:27:26;101278.69;;;12.78;100.00
19831;BME280;10076;52.008;4.708;2023-04-15T07:29:52;101286.84;;;13.00;100.00
19831;BME280;10076;52.008;4.708;2023-04-15T07:32:18;101285.41;;;13.07;100.00
19831;BME280;10076;52.008;4.708;2023-04-15T07:34:43;101299.69;;;13.16;100.00
19831;BME280;10076;52.008;4.708;2023-04-15T07:37:09;101303.63;;;13.34;100.00
19831;BME280;10076;52.008;4.708;2023-04-15T07:39:34;101303.97;;;13.30;100.00
19831;BME280;10076;52.008;4.708;2023-04-15T07:41:59;101309.19;;;13.42;100.00
19831;BME280;10076;52.008;4.708;2023-04-15T07:44:26;101298.88;;;13.50;100.00
19831;BME280;10076;52.008;4.708;2023-04-15T07:46:51;101320.56;;;13.44;100.00
19831;BME280;10076;52.008;4.708;2023-04-15T07:49:17;101325.75;;;13.46;100.00
19831;BME280;10076;52.008;4.708;2023-04-15T07:51:43;101323.75;;;13.60;100.00
19831;BME280;10076;52.008;4.708;2023-04-15T07:54:09;101337.78;;;13.73;100.00
19831;BME280;10076;52.008;4.708;2023-04-15T07:56:35;101343.31;;;13.70;100.00
19831;BME280;10076;52.008;4.708;2023-04-15T07:59:00;101343.63;;;13.89;100.00
19831;BME280;10076;52.008;4.708;2023-04-15T08:01:30;101344.50;;;14.00;100.00
19831;BME280;10076;52.008;4.708;2023-04-15T08:03:55;101356.03;;;14.23;100.00
19831;BME280;10076;52.008;4.708;2023-04-15T08:06:21;101360.53;;;14.44;100.00
19831;BME280;10076;52.008;4.708;2023-04-15T08:08:46;101363.66;;;14.38;100.00
19831;BME280;10076;52.008;4.708;2023-04-15T08:11:12;101369.25;;;14.46;100.00
19831;BME280;10076;52.008;4.708;2023-04-15T08:13:37;101371.50;;;14.50;100.00
19831;BME280;10076;52.008;4.708;2023-04-15T08:16:23;101373.69;;;14.46;100.00
19831;BME280;10076;52.008;4.708;2023-04-15T08:18:51;101372.25;;;14.52;100.00
19831;BME280;10076;52.008;4.708;2023-04-15T08:21:17;101386.91;;;14.69;100.00
19831;BME280;10076;52.008;4.708;2023-04-15T08:23:44;101390.38;;;14.91;100.00
19831;BME280;10076;52.008;4.708;2023-04-15T08:26:11;101390.59;;;15.10;100.00
19831;BME280;10076;52.008;4.708;2023-04-15T08:28:38;101396.19;;;15.07;100.00
19831;BME280;10076;52.008;4.708;2023-04-15T08:31:04;101402.81;;;15.23;100.00
19831;BME280;10076;52.008;4.708;2023-04-15T08:33:29;101402.69;;;15.36;100.00
19831;BME280;10076;52.008;4.708;2023-04-15T08:35:54;101411.72;;;15.55;100.00
19831;BME280;10076;52.008;4.708;2023-04-15T08:38:20;101414.69;;;15.62;100.00
19831;BME280;10076;52.008;4.708;2023-04-15T08:40:45;101414.28;;;15.77;100.00
19831;BME280;10076;52.008;4.708;2023-04-15T08:43:26;101423.31;;;16.17;100.00
19831;BME280;10076;52.008;4.708;2023-04-15T08:45:53;101422.78;;;16.23;100.00
19831;BME280;10076;52.008;4.708;2023-04-15T08:48:19;101426.28;;;16.34;100.00
19831;BME280;10076;52.008;4.708;2023-04-15T08:50:46;101429.38;;;16.60;100.00
19831;BME280;10076;52.008;4.708;2023-04-15T08:53:12;101437.16;;;16.72;100.00
19831;BME280;10076;52.008;4.708;2023-04-15T08:55:42;101436.91;;;16.75;100.00
19831;BME280;10076;52.008;4.708;2023-04-15T08:58:12;101443.13;;;16.85;100.00
19831;BME280;10076;52.008;4.708;2023-04-15T09:00:39;101451.16;;;17.24;100.00
19831;BME280;10076;52.008;4.708;2023-04-15T09:03:05;101453.97;;;17.71;100.00
19831;BME280;10076;52.008;4.708;2023-04-15T09:05:34;101455.28;;;18.05;100.00
19831;BME280;10076;52.008;4.708;2023-04-15T09:08:00;101460.34;;;18.27;100.00
19831;BME280;10076;52.008;4.708;2023-04-15T09:10:26;101455.00;;;18.27;100.00
19831;BME280;10076;52.008;4.708;2023-04-15T09:12:51;101450.53;;;18.27;100.00
19831;BME280;10076;52.008;4.708;2023-04-15T09:15:17;101467.38;;;17.90;100.00
19831;BME280;10076;52.008;4.708;2023-04-15T09:17:43;101468.06;;;18.11;100.00
19831;BME280;10076;52.008;4.708;2023-04-15T09:20:10;101470.78;;;18.20;100.00
19831;BME280;10076;52.008;4.708;2023-04-15T09:22:38;101472.28;;;18.13;100.00
19831;BME280;10076;52.008;4.708;2023-04-15T09:25:07;101485.38;;;18.54;100.00
19831;BME280;10076;52.008;4.708;2023-04-15T09:27:51;101489.19;;;19.26;100.00
19831;BME280;10076;52.008;4.708;2023-04-15T09:30:16;101495.78;;;20.54;100.00
19831;BME280;10076;52.008;4.708;2023-04-15T09:33:08;101511.22;;;21.95;100.00
19831;BME280;10076;52.008;4.708;2023-04-15T09:35:35;101502.91;;;22.69;89.90
19831;BME280;10076;52.008;4.708;2023-04-15T09:38:08;101510.69;;;23.50;86.04
19831;BME280;10076;52.008;4.708;2023-04-15T09:40:36;101519.31;;;24.59;81.22
19831;BME280;10076;52.008;4.708;2023-04-15T09:43:03;101518.28;;;25.33;72.45
19831;BME280;10076;52.008;4.708;2023-04-15T09:45:29;101520.28;;;26.03;70.13
19831;BME280;10076;52.008;4.708;2023-04-15T09:47:56;101516.31;;;26.83;65.26
19831;BME280;10076;52.008;4.708;2023-04-15T09:50:26;101523.47;;;27.45;62.73
19831;BME280;10076;52.008;4.708;2023-04-15T09:52:52;101528.34;;;27.96;62.68
19831;BME280;10076;52.008;4.708;2023-04-15T09:55:17;101527.47;;;28.62;61.50
19831;BME280;10076;52.008;4.708;2023-04-15T09:57:44;101537.06;;;29.61;54.45
19831;BME280;10076;52.008;4.708;2023-04-15T10:00:11;101536.19;;;29.73;51.86
19831;BME280;10076;52.008;4.708;2023-04-15T10:02:39;101546.03;;;29.74;48.25
19831;BME280;10076;52.008;4.708;2023-04-15T10:05:05;101544.19;;;30.18;45.88
19831;BME280;10076;52.008;4.708;2023-04-15T10:07:31;101533.03;;;30.64;44.62
19831;BME280;10076;52.008;4.708;2023-04-15T10:09:58;101534.81;;;31.07;46.27
19831;BME280;10076;52.008;4.708;2023-04-15T10:12:25;101552.31;;;30.62;43.69
19831;BME280;10076;52.008;4.708;2023-04-15T10:14:57;101560.72;;;30.23;41.50
19831;BME280;10076;52.008;4.708;2023-04-15T10:17:26;101559.34;;;30.45;42.62
19831;BME280;10076;52.008;4.708;2023-04-15T10:19:53;101557.19;;;30.84;42.00
19831;BME280;10076;52.008;4.708;2023-04-15T10:22:21;101557.28;;;31.51;41.48
19831;BME280;10076;52.008;4.708;2023-04-15T10:24:47;101563.59;;;31.69;40.53
19831;BME280;10076;52.008;4.708;2023-04-15T10:27:13;101558.44;;;32.26;39.63
19831;BME280;10076;52.008;4.708;2023-04-15T10:29:38;101571.47;;;32.13;42.71
19831;BME280;10076;52.008;4.708;2023-04-15T10:32:04;101564.91;;;32.32;40.76
19831;BME280;10076;52.008;4.708;2023-04-15T10:34:31;101572.09;;;32.74;39.90
19831;BME280;10076;52.008;4.708;2023-04-15T10:37:03;101573.75;;;33.27;40.29
19831;BME280;10076;52.008;4.708;2023-04-15T10:39:39;101575.09;;;32.25;41.54
19831;BME280;10076;52.008;4.708;2023-04-15T10:42:13;101574.28;;;31.89;41.49
19831;BME280;10076;52.008;4.708;2023-04-15T10:44:42;101574.00;;;32.15;42.77
19831;BME280;10076;52.008;4.708;2023-04-15T10:47:13;101580.38;;;32.38;40.47
19831;BME280;10076;52.008;4.708;2023-04-15T10:52:10;101579.31;;;32.39;39.20
19831;BME280;10076;52.008;4.708;2023-04-15T10:54:36;101586.25;;;33.23;38.17
19831;BME280;10076;52.008;4.708;2023-04-15T10:59:32;101587.72;;;35.05;37.37
19831;BME280;10076;52.008;4.708;2023-04-15T11:02:03;101590.41;;;34.89;37.19
19831;BME280;10076;52.008;4.708;2023-04-15T11:04:54;101595.63;;;35.02;33.87
19831;BME280;10076;52.008;4.708;2023-04-15T11:07:39;101593.53;;;35.79;33.80
19831;BME280;10076;52.008;4.708;2023-04-15T11:12:43;101600.03;;;36.32;34.68
19831;BME280;10076;52.008;4.708;2023-04-15T11:17:52;101600.19;;;36.95;35.20
19831;BME280;10076;52.008;4.708;2023-04-15T11:20:18;101601.84;;;36.69;33.97
19831;BME280;10076;52.008;4.708;2023-04-15T11:22:48;101616.50;;;36.27;35.12
19831;BME280;10076;52.008;4.708;2023-04-15T11:25:29;101600.00;;;37.06;33.86
19831;BME280;10076;52.008;4.708;2023-04-15T11:27:58;101613.97;;;37.26;33.11
19831;BME280;10076;52.008;4.708;2023-04-15T11:30:26;101615.34;;;37.60;34.05
19831;BME280;10076;52.008;4.708;2023-04-15T11:32:53;101615.41;;;37.29;33.19
19831;BME280;10076;52.008;4.708;2023-04-15T11:35:19;101627.22;;;36.45;32.57
19831;BME280;10076;52.008;4.708;2023-04-15T11:37:47;101625.78;;;34.57;34.79
19831;BME280;10076;52.008;4.708;2023-04-15T11:40:14;101624.50;;;33.86;36.60
19831;BME280;10076;52.008;4.708;2023-04-15T11:42:42;101620.53;;;33.14;35.28
19831;BME280;10076;52.008;4.708;2023-04-15T11:45:08;101619.50;;;33.26;35.95
19831;BME280;10076;52.008;4.708;2023-04-15T11:47:35;101629.75;;;33.65;34.68
19831;BME280;10076;52.008;4.708;2023-04-15T11:50:21;101634.00;;;34.18;33.90
19831;BME280;10076;52.008;4.708;2023-04-15T11:52:57;101643.97;;;34.75;33.68
19831;BME280;10076;52.008;4.708;2023-04-15T11:55:24;101634.03;;;36.21;33.61
19831;BME280;10076;52.008;4.708;2023-04-15T11:58:04;101636.72;;;37.79;30.99
19831;BME280;10076;52.008;4.708;2023-04-15T12:00:29;101644.34;;;37.67;31.10
19831;BME280;10076;52.008;4.708;2023-04-15T12:03:19;101635.81;;;37.64;31.52
19831;BME280;10076;52.008;4.708;2023-04-15T12:11:15;101653.97;;;36.76;31.32
19831;BME280;10076;52.008;4.708;2023-04-15T12:13:48;101648.91;;;34.61;32.24
19831;BME280;10076;52.008;4.708;2023-04-15T12:16:18;101645.66;;;33.22;34.35
19831;BME280;10076;52.008;4.708;2023-04-15T12:18:46;101647.72;;;33.50;33.13
19831;BME280;10076;52.008;4.708;2023-04-15T12:21:15;101648.59;;;35.46;31.13
19831;BME280;10076;52.008;4.708;2023-04-15T12:23:51;101656.88;;;37.80;29.04
19831;BME280;10076;52.008;4.708;2023-04-15T12:26:18;101671.47;;;38.92;27.94
19831;BME280;10076;52.008;4.708;2023-04-15T12:29:02;101673.69;;;39.00;27.10
19831;BME280;10076;52.008;4.708;2023-04-15T12:31:28;101671.34;;;38.53;27.31
19831;BME280;10076;52.008;4.708;2023-04-15T12:33:55;101676.53;;;39.10;27.90
19831;BME280;10076;52.008;4.708;2023-04-15T12:36:20;101681.47;;;39.23;26.03
19831;BME280;10076;52.008;4.708;2023-04-15T12:38:46;101681.88;;;38.61;27.61
19831;BME280;10076;52.008;4.708;2023-04-15T12:41:11;101682.06;;;37.93;27.68
19831;BME280;10076;52.008;4.708;2023-04-15T12:43:37;101676.81;;;36.12;29.31
19831;BME280;10076;52.008;4.708;2023-04-15T12:46:02;101693.41;;;37.03;28.53
19831;BME280;10076;52.008;4.708;2023-04-15T12:48:28;101688.03;;;37.18;28.50
19831;BME280;10076;52.008;4.708;2023-04-15T12:50:54;101699.44;;;36.78;27.24
19831;BME280;10076;52.008;4.708;2023-04-15T12:53:19;101704.44;;;35.35;28.03
19831;BME280;10076;52.008;4.708;2023-04-15T12:55:44;101693.91;;;35.60;29.14